createdAt,value
2017-11-25T00:02:14.962Z,7.20
2017-11-25T00:04:43.197Z,7.00
2017-11-25T00:07:10.665Z,7.30
2017-11-25T00:09:38.150Z,7.10
2017-11-25T00:12:06.400Z,7.20
2017-11-25T00:14:33.877Z,7.10
2017-11-25T00:17:01.445Z,7.20
2017-11-25T00:19:29.697Z,7.40
2017-11-25T00:21:57.271Z,7.40
2017-11-25T00:24:24.757Z,7.40
2017-11-25T00:26:53.010Z,7.40
2017-11-25T00:29:20.487Z,7.50
2017-11-25T00:31:47.989Z,7.40
2017-11-25T00:34:15.474Z,7.50
2017-11-25T00:36:42.967Z,7.40
2017-11-25T00:39:10.464Z,7.40
2017-11-25T00:41:37.951Z,7.30
2017-11-25T00:44:05.516Z,7.30
2017-11-25T00:46:33.084Z,7.40
2017-11-25T00:49:00.982Z,7.40
2017-11-25T00:51:28.506Z,7.40
2017-11-25T00:53:55.973Z,7.40
2017-11-25T00:56:23.467Z,7.40
2017-11-25T00:58:50.933Z,7.50
2017-11-25T01:01:18.417Z,7.50
2017-11-25T01:03:45.938Z,7.50
2017-11-25T01:06:13.415Z,7.50
2017-11-25T01:08:40.884Z,7.50
2017-11-25T01:11:08.373Z,7.50
2017-11-25T01:13:35.858Z,7.50
2017-11-25T01:16:04.097Z,7.50
2017-11-25T01:18:31.578Z,7.70
2017-11-25T01:20:59.822Z,7.50
2017-11-25T01:23:27.299Z,7.50
2017-11-25T01:25:54.787Z,7.50
2017-11-25T01:28:22.389Z,7.50
2017-11-25T01:30:49.878Z,7.50
2017-11-25T01:33:17.426Z,7.50
2017-11-25T01:35:44.891Z,7.50
2017-11-25T01:38:12.366Z,7.50
2017-11-25T01:40:40.625Z,7.40
2017-11-25T01:43:08.105Z,7.50
2017-11-25T01:45:36.353Z,7.50
2017-11-25T01:48:03.825Z,7.60
2017-11-25T01:50:31.306Z,7.40
2017-11-25T01:52:59.545Z,7.30
2017-11-25T01:55:27.041Z,7.50
2017-11-25T01:57:55.272Z,7.30
2017-11-25T02:00:22.749Z,7.50
2017-11-25T02:02:50.216Z,7.40
2017-11-25T02:05:17.693Z,7.40
2017-11-25T02:07:45.160Z,7.50
2017-11-25T02:10:12.641Z,7.60
2017-11-25T02:12:40.112Z,7.40
2017-11-25T02:15:07.588Z,7.40
2017-11-25T02:17:35.078Z,7.40
2017-11-25T02:20:03.330Z,7.40
2017-11-25T02:22:30.847Z,7.40
2017-11-25T02:24:58.330Z,7.30
2017-11-25T02:27:25.819Z,7.20
2017-11-25T02:29:53.302Z,7.20
2017-11-25T02:32:20.769Z,7.20
2017-11-25T02:34:48.244Z,7.30
2017-11-25T02:37:15.728Z,7.30
2017-11-25T02:39:43.206Z,7.40
2017-11-25T02:42:10.681Z,7.40
2017-11-25T02:44:38.921Z,7.50
2017-11-25T02:47:06.413Z,7.60
2017-11-25T02:49:34.638Z,7.50
2017-11-25T02:52:02.115Z,7.50
2017-11-25T02:54:29.614Z,7.50
2017-11-25T02:56:57.865Z,7.60
2017-11-25T02:59:25.349Z,7.80
2017-11-25T03:01:53.614Z,7.60
2017-11-25T03:04:21.085Z,7.70
2017-11-25T03:06:49.336Z,7.60
2017-11-25T03:09:16.819Z,7.80
2017-11-25T03:11:45.084Z,7.60
2017-11-25T03:14:13.331Z,7.60
2017-11-25T03:16:40.801Z,7.90
2017-11-25T03:19:08.281Z,7.60
2017-11-25T03:21:36.528Z,7.60
2017-11-25T03:24:04.011Z,7.80
2017-11-25T03:26:31.472Z,7.60
2017-11-25T03:28:59.713Z,7.60
2017-11-25T03:31:27.188Z,7.70
2017-11-25T03:33:54.660Z,7.70
2017-11-25T03:36:22.905Z,7.70
2017-11-25T03:38:50.399Z,7.80
2017-11-25T03:41:25.424Z,7.70
2017-11-25T03:43:52.917Z,7.70
2017-11-25T03:46:20.387Z,7.70
2017-11-25T03:48:47.867Z,7.70
2017-11-25T03:51:15.351Z,7.70
2017-11-25T03:53:42.838Z,7.70
2017-11-25T03:56:11.080Z,7.70
2017-11-25T03:58:38.568Z,7.70
2017-11-25T04:01:06.808Z,7.70
2017-11-25T04:03:34.393Z,7.80
2017-11-25T04:06:02.625Z,7.80
2017-11-25T04:08:30.115Z,7.70
2017-11-25T04:10:58.355Z,7.80
2017-11-25T04:13:25.848Z,7.90
2017-11-25T04:15:53.324Z,7.90
2017-11-25T04:18:21.569Z,7.90
2017-11-25T04:20:49.049Z,7.80
2017-11-25T04:23:18.073Z,7.90
2017-11-25T04:25:45.619Z,8.00
2017-11-25T04:28:13.880Z,8.00
2017-11-25T04:30:41.372Z,7.90
2017-11-25T04:33:09.616Z,7.90
2017-11-25T04:35:37.868Z,7.90
2017-11-25T04:38:05.365Z,7.90
2017-11-25T04:40:33.651Z,7.90
2017-11-25T04:43:01.890Z,7.90
2017-11-25T04:45:29.374Z,7.90
2017-11-25T04:47:57.620Z,8.00
2017-11-25T04:50:25.116Z,8.00
2017-11-25T04:52:53.373Z,8.00
2017-11-25T04:55:20.840Z,7.90
2017-11-25T04:57:49.112Z,8.00
2017-11-25T05:00:18.322Z,7.90
2017-11-25T05:02:46.560Z,8.00
2017-11-25T05:05:14.050Z,8.10
2017-11-25T05:07:41.534Z,8.00
2017-11-25T05:10:09.017Z,8.00
2017-11-25T05:12:36.500Z,7.90
2017-11-25T05:15:03.986Z,7.90
2017-11-25T05:17:32.260Z,7.90
2017-11-25T05:19:59.747Z,7.80
2017-11-25T05:22:27.281Z,8.10
2017-11-25T05:24:55.538Z,8.00
2017-11-25T05:27:23.010Z,7.90
2017-11-25T05:29:51.270Z,7.90
2017-11-25T05:32:18.737Z,7.90
2017-11-25T05:34:47.026Z,8.00
2017-11-25T05:37:14.492Z,8.00
2017-11-25T05:39:42.755Z,8.00
2017-11-25T05:42:10.242Z,8.00
2017-11-25T05:44:38.480Z,8.10
2017-11-25T05:47:05.952Z,8.20
2017-11-25T05:49:33.423Z,8.10
2017-11-25T05:52:01.658Z,8.20
2017-11-25T05:54:29.137Z,8.20
2017-11-25T05:56:58.220Z,8.20
2017-11-25T05:59:25.790Z,8.30
2017-11-25T06:01:53.270Z,8.20
2017-11-25T06:04:21.501Z,8.10
2017-11-25T06:06:48.986Z,8.10
2017-11-25T06:09:17.981Z,8.00
2017-11-25T06:11:45.457Z,8.30
2017-11-25T06:14:13.709Z,8.00
2017-11-25T06:16:41.194Z,8.10
2017-11-25T06:19:09.444Z,7.90
2017-11-25T06:21:36.912Z,7.90
2017-11-25T06:24:05.152Z,7.90
2017-11-25T06:26:32.623Z,7.80
2017-11-25T06:29:00.201Z,7.80
2017-11-25T06:31:27.677Z,7.80
2017-11-25T06:33:55.948Z,7.90
2017-11-25T06:36:24.192Z,7.90
2017-11-25T06:38:51.667Z,7.90
2017-11-25T06:41:19.235Z,7.90
2017-11-25T06:43:46.713Z,7.90
2017-11-25T06:46:14.969Z,7.90
2017-11-25T06:48:43.940Z,8.20
2017-11-25T06:51:11.428Z,7.90
2017-11-25T06:53:38.898Z,7.90
2017-11-25T06:56:07.153Z,7.90
2017-11-25T06:58:35.434Z,7.70
2017-11-25T07:01:03.685Z,7.70
2017-11-25T07:03:31.169Z,7.90
2017-11-25T07:05:58.640Z,7.70
2017-11-25T07:08:26.880Z,7.80
2017-11-25T07:10:54.353Z,7.80
2017-11-25T07:13:21.823Z,7.80
2017-11-25T07:15:50.093Z,7.80
2017-11-25T07:18:17.562Z,7.90
2017-11-25T07:20:45.797Z,7.70
2017-11-25T07:23:13.273Z,7.80
2017-11-25T07:25:40.847Z,7.70
2017-11-25T07:28:08.374Z,7.70
2017-11-25T07:30:35.841Z,7.70
2017-11-25T07:33:03.321Z,7.70
2017-11-25T07:35:30.877Z,7.60
2017-11-25T07:37:58.389Z,7.60
2017-11-25T07:40:25.858Z,7.60
2017-11-25T07:42:53.337Z,7.60
2017-11-25T07:45:20.797Z,7.40
2017-11-25T07:47:48.277Z,7.40
2017-11-25T07:50:15.831Z,7.30
2017-11-25T07:52:44.114Z,6.90
2017-11-25T07:55:11.572Z,7.00
2017-11-25T07:57:39.046Z,6.70
2017-11-25T08:00:07.278Z,6.60
2017-11-25T08:02:34.750Z,6.60
2017-11-25T08:05:02.253Z,6.60
2017-11-25T08:07:29.757Z,6.50
2017-11-25T08:09:57.229Z,6.40
2017-11-25T08:12:24.705Z,6.60
2017-11-25T08:14:52.176Z,6.20
2017-11-25T08:17:20.514Z,6.10
2017-11-25T08:19:47.985Z,6.10
2017-11-25T08:22:15.457Z,6.30
2017-11-25T08:24:43.727Z,6.10
2017-11-25T08:27:11.195Z,6.40
2017-11-25T08:29:39.441Z,6.10
2017-11-25T08:32:06.907Z,6.10
2017-11-25T08:34:34.477Z,6.20
2017-11-25T08:37:01.942Z,6.20
2017-11-25T08:39:29.492Z,6.20
2017-11-25T08:41:57.051Z,6.10
2017-11-25T08:44:24.530Z,6.10
2017-11-25T08:46:52.765Z,6.00
2017-11-25T08:49:20.248Z,5.90
2017-11-25T08:51:47.822Z,5.90
2017-11-25T08:54:16.082Z,5.80
2017-11-25T08:56:43.540Z,5.90
2017-11-25T08:59:11.017Z,6.10
2017-11-25T09:01:39.257Z,5.70
2017-11-25T09:04:06.726Z,5.80
2017-11-25T09:06:34.180Z,6.10
2017-11-25T09:09:01.663Z,6.00
2017-11-25T09:11:29.944Z,6.00
2017-11-25T09:13:57.420Z,6.10
2017-11-25T09:16:24.888Z,6.20
2017-11-25T09:18:52.357Z,6.30
2017-11-25T09:21:19.825Z,6.30
2017-11-25T09:23:47.294Z,6.30
2017-11-25T09:26:14.753Z,6.30
2017-11-25T09:28:42.229Z,6.30
2017-11-25T09:31:09.688Z,6.30
2017-11-25T09:33:37.169Z,6.20
2017-11-25T09:36:05.405Z,6.20
2017-11-25T09:38:32.983Z,6.20
2017-11-25T09:41:00.556Z,6.10
2017-11-25T09:43:28.113Z,6.30
2017-11-25T09:45:56.390Z,5.90
2017-11-25T09:48:23.947Z,6.10
2017-11-25T09:50:52.203Z,5.60
2017-11-25T09:53:19.686Z,5.80
2017-11-25T09:55:47.148Z,6.00
2017-11-25T09:58:15.420Z,5.40
2017-11-25T10:00:43.138Z,5.40
2017-11-25T10:03:10.595Z,5.40
2017-11-25T10:05:38.067Z,5.50
2017-11-25T10:08:05.523Z,5.60
2017-11-25T10:10:32.989Z,5.60
2017-11-25T10:13:00.461Z,5.30
2017-11-25T10:15:27.947Z,5.30
2017-11-25T10:17:56.174Z,5.70
2017-11-25T10:20:23.660Z,5.60
2017-11-25T10:22:51.938Z,5.70
2017-11-25T10:25:19.417Z,5.50
2017-11-25T10:27:47.649Z,5.70
2017-11-25T10:30:15.233Z,5.90
2017-11-25T10:32:42.710Z,5.60
2017-11-25T10:35:10.947Z,5.50
2017-11-25T10:37:38.420Z,5.20
2017-11-25T10:40:05.890Z,5.50
2017-11-25T10:42:33.361Z,5.30
2017-11-25T10:45:01.588Z,5.40
2017-11-25T10:47:29.093Z,5.50
2017-11-25T10:49:57.330Z,5.30
2017-11-25T10:52:24.960Z,5.30
2017-11-25T10:54:52.429Z,5.30
2017-11-25T10:57:19.928Z,5.30
2017-11-25T11:02:40.715Z,5.60
2017-11-25T11:05:08.180Z,5.40
2017-11-25T11:07:35.667Z,5.70
2017-11-25T11:10:03.154Z,5.60
2017-11-25T11:12:32.088Z,5.60
2017-11-25T11:14:59.556Z,5.60
2017-11-25T11:17:27.133Z,5.70
2017-11-25T11:19:54.697Z,5.50
2017-11-25T11:22:22.166Z,5.70
2017-11-25T11:24:51.123Z,5.60
2017-11-25T11:27:18.618Z,5.60
2017-11-25T11:29:46.880Z,5.60
2017-11-25T11:32:14.362Z,5.40
2017-11-25T11:34:42.589Z,5.60
2017-11-25T11:37:10.067Z,5.60
2017-11-25T11:39:37.631Z,5.70
2017-11-25T11:42:05.194Z,5.80
2017-11-25T11:44:32.656Z,5.90
2017-11-25T11:47:00.138Z,5.90
2017-11-25T11:49:28.369Z,5.90
2017-11-25T11:51:55.950Z,5.80
2017-11-25T11:54:23.407Z,5.60
2017-11-25T11:56:50.965Z,5.70
2017-11-25T11:59:18.423Z,5.20
2017-11-25T12:01:45.888Z,5.60
2017-11-25T12:04:14.126Z,5.70
2017-11-25T12:06:41.597Z,5.70
2017-11-25T12:09:09.066Z,5.70
2017-11-25T12:11:36.537Z,5.60
2017-11-25T12:14:04.035Z,5.50
2017-11-25T12:16:31.497Z,5.70
2017-11-25T12:18:59.022Z,5.60
2017-11-25T12:21:27.264Z,5.60
2017-11-25T12:23:54.849Z,5.60
2017-11-25T12:26:22.409Z,5.50
2017-11-25T12:28:49.885Z,5.60
2017-11-25T12:31:18.112Z,5.30
2017-11-25T12:33:45.594Z,5.30
2017-11-25T12:36:13.061Z,5.50
2017-11-25T12:38:41.316Z,5.10
2017-11-25T12:41:08.776Z,5.00
2017-11-25T12:43:36.262Z,4.90
2017-11-25T12:46:04.496Z,5.20
2017-11-25T12:48:31.968Z,4.80
2017-11-25T12:50:59.441Z,4.90
2017-11-25T12:53:26.913Z,5.00
2017-11-25T12:55:55.145Z,4.90
2017-11-25T12:58:22.627Z,4.80
2017-11-25T13:00:50.172Z,5.00
2017-11-25T13:03:17.648Z,5.30
2017-11-25T13:05:45.117Z,5.30
2017-11-25T13:08:13.362Z,5.10
2017-11-25T13:10:40.847Z,5.10
2017-11-25T13:13:08.320Z,5.30
2017-11-25T13:15:36.563Z,5.60
2017-11-25T13:18:04.034Z,5.60
2017-11-25T13:20:31.505Z,5.40
2017-11-25T13:22:59.737Z,5.50
2017-11-25T13:25:27.226Z,5.80
2017-11-25T13:27:54.696Z,5.90
2017-11-25T13:30:22.936Z,5.70
2017-11-25T13:32:50.421Z,5.80
2017-11-25T13:35:17.900Z,5.60
2017-11-25T13:37:46.127Z,5.50
2017-11-25T13:40:13.621Z,5.50
2017-11-25T13:42:41.172Z,5.40
2017-11-25T13:45:08.733Z,5.30
2017-11-25T13:47:36.196Z,5.60
2017-11-25T13:50:03.672Z,5.50
2017-11-25T13:52:31.907Z,5.50
2017-11-25T13:54:59.484Z,5.70
2017-11-25T13:57:26.963Z,5.60
2017-11-25T13:59:55.217Z,5.50
2017-11-25T14:02:22.700Z,5.80
2017-11-25T14:04:50.937Z,5.60
2017-11-25T14:07:18.404Z,5.80
2017-11-25T14:09:45.995Z,5.40
2017-11-25T14:12:14.231Z,5.50
2017-11-25T14:14:41.704Z,5.50
2017-11-25T14:17:09.172Z,5.80
2017-11-25T14:19:36.657Z,5.50
2017-11-25T14:22:04.900Z,5.10
2017-11-25T14:24:32.465Z,5.20
2017-11-25T14:26:59.949Z,5.20
2017-11-25T14:29:28.189Z,5.50
2017-11-25T14:31:55.746Z,5.30
2017-11-25T14:34:23.223Z,5.20
2017-11-25T14:36:50.700Z,5.60
2017-11-25T14:39:18.928Z,5.30
2017-11-25T14:41:46.411Z,5.50
2017-11-25T14:44:13.863Z,5.40
2017-11-25T14:46:41.346Z,5.10
2017-11-25T14:49:09.625Z,5.00
2017-11-25T14:51:37.872Z,5.00
2017-11-25T14:54:05.342Z,5.20
2017-11-25T14:56:32.888Z,5.10
2017-11-25T14:59:00.353Z,5.30
2017-11-25T15:01:27.821Z,5.30
2017-11-25T15:03:55.295Z,5.20
2017-11-25T15:06:23.537Z,5.20
2017-11-25T15:08:51.013Z,5.00
2017-11-25T15:11:19.273Z,5.00
2017-11-25T15:13:46.838Z,4.90
2017-11-25T15:16:14.400Z,5.00
2017-11-25T15:18:41.868Z,5.00
2017-11-25T15:21:09.424Z,5.10
2017-11-25T15:23:36.892Z,5.00
2017-11-25T15:26:05.145Z,4.70
2017-11-25T15:28:32.626Z,5.10
2017-11-25T15:31:00.877Z,5.00
2017-11-25T15:33:28.344Z,5.00
2017-11-25T15:35:55.868Z,4.70
2017-11-25T15:38:23.349Z,4.70
2017-11-25T15:40:50.815Z,5.10
2017-11-25T15:43:18.296Z,4.90
2017-11-25T15:45:46.573Z,5.10
2017-11-25T15:48:14.816Z,5.10
2017-11-25T15:50:42.293Z,5.10
2017-11-25T15:53:09.798Z,5.10
2017-11-25T15:55:37.316Z,5.30
2017-11-25T15:58:04.868Z,5.30
2017-11-25T16:00:33.109Z,5.30
2017-11-25T16:03:00.604Z,5.10
2017-11-25T16:05:28.174Z,5.00
2017-11-25T16:07:55.658Z,5.20
2017-11-25T16:10:23.128Z,5.30
2017-11-25T16:12:50.640Z,5.00
2017-11-25T16:15:18.117Z,5.30
2017-11-25T16:17:46.368Z,5.30
2017-11-25T16:20:13.938Z,4.80
2017-11-25T16:22:41.568Z,5.20
2017-11-25T16:25:09.040Z,5.10
2017-11-25T16:27:36.524Z,5.10
2017-11-25T16:30:04.764Z,5.30
2017-11-25T16:32:32.248Z,5.30
2017-11-25T16:34:59.719Z,5.20
2017-11-25T16:37:27.198Z,5.10
2017-11-25T16:39:54.665Z,5.00
2017-11-25T16:42:22.141Z,5.00
2017-11-25T16:44:49.617Z,5.30
2017-11-25T16:47:17.202Z,5.20
2017-11-25T16:49:44.773Z,5.00
2017-11-25T16:52:13.028Z,5.20
2017-11-25T16:54:41.272Z,5.00
2017-11-25T16:57:08.749Z,5.00
2017-11-25T16:59:36.226Z,4.80
2017-11-25T17:02:03.703Z,5.20
2017-11-25T17:04:31.176Z,4.90
2017-11-25T17:06:58.730Z,5.30
2017-11-25T17:09:26.991Z,5.20
2017-11-25T17:11:54.464Z,5.40
2017-11-25T17:14:22.735Z,5.40
2017-11-25T17:16:50.960Z,4.90
2017-11-25T17:19:18.556Z,5.10
2017-11-25T17:21:46.829Z,4.90
2017-11-25T17:24:15.817Z,5.10
2017-11-25T17:26:43.287Z,4.90
2017-11-25T17:29:10.771Z,5.20
2017-11-25T17:31:39.007Z,5.20
2017-11-25T17:34:07.358Z,5.20
2017-11-25T17:36:34.836Z,4.90
2017-11-25T17:39:02.313Z,5.10
2017-11-25T17:41:31.090Z,5.00
2017-11-25T17:43:58.767Z,4.90
2017-11-25T17:46:26.381Z,4.90
2017-11-25T17:48:53.874Z,4.80
2017-11-25T17:51:21.450Z,4.70
2017-11-25T17:53:48.929Z,4.80
2017-11-25T17:56:17.161Z,4.90
2017-11-25T17:58:44.640Z,4.50
2017-11-25T18:01:13.618Z,4.70
2017-11-25T18:03:41.192Z,4.80
2017-11-25T18:06:09.429Z,4.70
2017-11-25T18:08:36.912Z,4.70
2017-11-25T18:11:04.493Z,4.60
2017-11-25T18:13:32.043Z,4.60
2017-11-25T18:15:59.523Z,4.70
2017-11-25T18:18:27.770Z,4.80
2017-11-25T18:20:55.255Z,4.90
2017-11-25T18:23:23.499Z,5.00
2017-11-25T18:25:50.970Z,4.90
2017-11-25T18:28:18.445Z,4.70
2017-11-25T18:30:46.708Z,4.80
2017-11-25T18:33:14.268Z,4.80
2017-11-25T18:35:41.758Z,4.70
2017-11-25T18:38:10.008Z,4.80
2017-11-25T18:40:38.252Z,4.70
2017-11-25T18:43:05.950Z,4.70
2017-11-25T18:45:34.213Z,4.80
2017-11-25T18:48:01.685Z,4.60
2017-11-25T18:50:29.154Z,4.60
2017-11-25T18:52:57.392Z,4.50
2017-11-25T18:55:24.975Z,4.70
2017-11-25T18:57:53.223Z,4.70
2017-11-25T19:00:20.721Z,4.90
2017-11-25T19:02:48.185Z,4.60
2017-11-25T19:05:16.434Z,4.60
2017-11-25T19:07:43.997Z,4.70
2017-11-25T19:10:11.486Z,4.80
2017-11-25T19:12:39.734Z,4.50
2017-11-25T19:15:07.458Z,4.60
2017-11-25T19:17:34.990Z,4.60
2017-11-25T19:20:03.249Z,4.90
2017-11-25T19:22:31.490Z,4.60
2017-11-25T19:24:58.978Z,4.60
2017-11-25T19:27:26.444Z,4.90
2017-11-25T19:29:54.705Z,4.60
2017-11-25T19:32:22.272Z,4.60
2017-11-25T19:34:49.780Z,4.60
2017-11-25T19:37:17.360Z,4.70
2017-11-25T19:39:44.866Z,4.80
2017-11-25T19:42:13.117Z,4.60
2017-11-25T19:44:40.590Z,4.60
2017-11-25T19:47:08.078Z,4.60
2017-11-25T19:49:35.558Z,4.60
2017-11-25T19:52:03.033Z,4.70
2017-11-25T19:54:30.509Z,4.50
2017-11-25T19:59:51.751Z,4.40
2017-11-25T20:02:19.229Z,4.60
2017-11-25T20:04:47.477Z,4.50
2017-11-25T20:07:14.964Z,4.40
2017-11-25T20:09:43.207Z,4.50
2017-11-25T20:12:10.783Z,4.40
2017-11-25T20:14:38.348Z,4.60
2017-11-25T20:17:05.893Z,4.50
2017-11-25T20:19:33.364Z,4.70
2017-11-25T20:22:00.867Z,4.40
2017-11-25T20:24:28.350Z,4.90
2017-11-25T20:26:55.841Z,4.70
2017-11-25T20:29:23.305Z,4.60
2017-11-25T20:31:51.552Z,4.60
2017-11-25T20:34:19.014Z,4.80
2017-11-25T20:36:46.509Z,4.60
2017-11-25T20:39:13.986Z,4.60
2017-11-25T20:41:41.506Z,4.70
2017-11-25T20:44:08.977Z,4.70
2017-11-25T20:46:37.239Z,4.90
2017-11-25T20:49:04.704Z,5.20
2017-11-25T20:51:33.087Z,5.20
2017-11-25T20:54:01.334Z,5.10
2017-11-25T20:56:28.797Z,5.00
2017-11-25T20:58:56.281Z,4.90
2017-11-25T21:01:24.530Z,5.00
2017-11-25T21:03:52.021Z,5.10
2017-11-25T21:06:20.254Z,5.00
2017-11-25T21:08:47.731Z,4.80
2017-11-25T21:11:15.289Z,4.70
2017-11-25T21:13:42.861Z,4.80
2017-11-25T21:16:11.103Z,4.50
2017-11-25T21:18:38.690Z,4.70
2017-11-25T21:21:06.163Z,4.80
2017-11-25T21:23:34.418Z,4.60
2017-11-25T21:26:01.893Z,4.60
2017-11-25T21:28:30.137Z,4.40
2017-11-25T21:30:57.611Z,4.50
2017-11-25T21:33:25.102Z,4.60
2017-11-25T21:41:39.756Z,4.50
2017-11-25T21:44:07.247Z,4.60
2017-11-25T21:46:35.521Z,4.60
2017-11-25T21:49:02.996Z,4.60
2017-11-25T21:51:30.533Z,4.60
2017-11-25T21:53:58.012Z,4.50
2017-11-25T21:56:26.261Z,4.40
2017-11-25T21:58:55.274Z,4.60
2017-11-25T22:01:22.827Z,4.70
2017-11-25T22:03:51.081Z,4.70
2017-11-25T22:06:18.562Z,4.60
2017-11-25T22:08:46.827Z,4.70
2017-11-25T22:11:14.290Z,4.70
2017-11-25T22:13:42.572Z,4.60
2017-11-25T22:16:10.863Z,4.50
2017-11-25T22:18:40.100Z,4.40
2017-11-25T22:21:07.610Z,4.60
2017-11-25T22:23:35.863Z,4.50
2017-11-25T22:26:03.346Z,4.60
2017-11-25T22:28:31.608Z,4.90
2017-11-25T22:30:59.855Z,4.50
2017-11-25T22:33:27.326Z,4.60
2017-11-25T22:35:54.827Z,4.70
2017-11-25T22:38:23.079Z,4.70
2017-11-25T22:40:50.568Z,4.80
2017-11-25T22:43:18.062Z,5.10
2017-11-25T22:45:45.577Z,4.70
2017-11-25T22:48:13.830Z,4.60
2017-11-25T22:50:42.132Z,4.80
2017-11-25T22:53:10.398Z,4.80
2017-11-25T22:55:37.968Z,4.90
2017-11-25T22:58:06.246Z,4.60
2017-11-25T23:00:34.525Z,4.90
2017-11-25T23:03:02.753Z,4.80
2017-11-25T23:05:30.253Z,4.80
2017-11-25T23:07:58.524Z,5.00
2017-11-25T23:10:26.790Z,5.00
2017-11-25T23:12:54.281Z,4.80
2017-11-25T23:15:21.884Z,4.90
2017-11-25T23:17:49.500Z,4.90
2017-11-25T23:20:17.745Z,4.80
2017-11-25T23:22:45.296Z,4.70
2017-11-25T23:25:12.870Z,5.10
2017-11-25T23:27:40.420Z,5.00
2017-11-25T23:30:08.003Z,4.80
2017-11-25T23:32:36.251Z,5.00
2017-11-25T23:35:03.824Z,4.80
2017-11-25T23:37:31.328Z,5.10
2017-11-25T23:39:58.808Z,4.70
2017-11-25T23:42:26.305Z,5.00
2017-11-25T23:44:53.790Z,4.80
2017-11-25T23:47:21.263Z,4.80
2017-11-25T23:49:48.753Z,5.10
2017-11-25T23:52:16.229Z,5.10
2017-11-25T23:54:43.846Z,4.90
2017-11-25T23:57:11.327Z,4.90
2017-11-25T23:59:38.798Z,5.10
